sensor_id;sensor_type;location;lat;lon;timestamp;P1;durP1;ratioP1;P2;durP2;ratioP2
47784;SDS011;35233;55.686;37.848;2023-02-28T00:01:10;4.65;;;3.40;;
47784;SDS011;35233;55.686;37.848;2023-02-28T00:03:37;4.35;;;3.47;;
47784;SDS011;35233;55.686;37.848;2023-02-28T00:06:03;4.95;;;3.70;;
47784;SDS011;35233;55.686;37.848;2023-02-28T00:08:30;4.55;;;3.40;;
47784;SDS011;35233;55.686;37.848;2023-02-28T00:10:55;5.32;;;3.63;;
47784;SDS011;35233;55.686;37.848;2023-02-28T00:13:21;5.50;;;3.30;;
47784;SDS011;35233;55.686;37.848;2023-02-28T00:15:46;6.03;;;3.65;;
47784;SDS011;35233;55.686;37.848;2023-02-28T00:18:12;5.03;;;3.90;;
47784;SDS011;35233;55.686;37.848;2023-02-28T00:20:38;4.63;;;3.40;;
47784;SDS011;35233;55.686;37.848;2023-02-28T00:23:04;5.85;;;3.90;;
47784;SDS011;35233;55.686;37.848;2023-02-28T00:25:30;4.07;;;3.38;;
47784;SDS011;35233;55.686;37.848;2023-02-28T00:27:55;6.43;;;3.65;;
47784;SDS011;35233;55.686;37.848;2023-02-28T00:30:22;4.68;;;3.42;;
47784;SDS011;35233;55.686;37.848;2023-02-28T00:32:48;6.60;;;3.80;;
47784;SDS011;35233;55.686;37.848;2023-02-28T00:35:15;5.25;;;3.97;;
47784;SDS011;35233;55.686;37.848;2023-02-28T00:37:41;5.50;;;3.60;;
47784;SDS011;35233;55.686;37.848;2023-02-28T00:40:07;6.45;;;4.07;;
47784;SDS011;35233;55.686;37.848;2023-02-28T00:42:34;5.25;;;4.00;;
47784;SDS011;35233;55.686;37.848;2023-02-28T00:45:00;5.30;;;3.78;;
47784;SDS011;35233;55.686;37.848;2023-02-28T00:47:26;5.15;;;3.78;;
47784;SDS011;35233;55.686;37.848;2023-02-28T00:49:52;5.10;;;3.97;;
47784;SDS011;35233;55.686;37.848;2023-02-28T00:52:17;5.22;;;3.47;;
47784;SDS011;35233;55.686;37.848;2023-02-28T00:54:43;5.45;;;4.10;;
47784;SDS011;35233;55.686;37.848;2023-02-28T00:57:08;5.25;;;3.85;;
47784;SDS011;35233;55.686;37.848;2023-02-28T00:59:34;5.47;;;3.92;;
47784;SDS011;35233;55.686;37.848;2023-02-28T01:02:00;5.57;;;4.00;;
47784;SDS011;35233;55.686;37.848;2023-02-28T01:04:25;5.15;;;4.05;;
47784;SDS011;35233;55.686;37.848;2023-02-28T01:06:51;4.90;;;4.00;;
47784;SDS011;35233;55.686;37.848;2023-02-28T01:09:16;5.88;;;3.83;;
47784;SDS011;35233;55.686;37.848;2023-02-28T01:11:41;5.97;;;4.00;;
47784;SDS011;35233;55.686;37.848;2023-02-28T01:14:09;6.43;;;4.07;;
47784;SDS011;35233;55.686;37.848;2023-02-28T01:16:38;7.47;;;4.20;;
47784;SDS011;35233;55.686;37.848;2023-02-28T01:19:04;5.57;;;4.18;;
47784;SDS011;35233;55.686;37.848;2023-02-28T01:21:29;5.38;;;4.20;;
47784;SDS011;35233;55.686;37.848;2023-02-28T01:23:56;6.07;;;4.40;;
47784;SDS011;35233;55.686;37.848;2023-02-28T01:26:22;6.47;;;4.57;;
47784;SDS011;35233;55.686;37.848;2023-02-28T01:28:49;6.22;;;4.47;;
47784;SDS011;35233;55.686;37.848;2023-02-28T01:31:15;6.60;;;4.72;;
47784;SDS011;35233;55.686;37.848;2023-02-28T01:33:41;5.85;;;4.30;;
47784;SDS011;35233;55.686;37.848;2023-02-28T01:36:11;6.38;;;4.97;;
47784;SDS011;35233;55.686;37.848;2023-02-28T01:38:44;6.03;;;4.43;;
47784;SDS011;35233;55.686;37.848;2023-02-28T01:41:21;6.75;;;4.50;;
47784;SDS011;35233;55.686;37.848;2023-02-28T01:46:14;7.93;;;4.75;;
47784;SDS011;35233;55.686;37.848;2023-02-28T01:48:48;6.88;;;4.40;;
47784;SDS011;35233;55.686;37.848;2023-02-28T01:51:16;6.47;;;4.60;;
47784;SDS011;35233;55.686;37.848;2023-02-28T01:53:47;5.68;;;4.28;;
47784;SDS011;35233;55.686;37.848;2023-02-28T01:56:19;7.40;;;4.70;;
47784;SDS011;35233;55.686;37.848;2023-02-28T01:58:49;7.50;;;4.78;;
47784;SDS011;35233;55.686;37.848;2023-02-28T02:01:17;6.55;;;4.53;;
47784;SDS011;35233;55.686;37.848;2023-02-28T02:04:01;6.00;;;4.50;;
47784;SDS011;35233;55.686;37.848;2023-02-28T02:06:29;6.90;;;4.65;;
47784;SDS011;35233;55.686;37.848;2023-02-28T02:09:00;7.72;;;4.20;;
47784;SDS011;35233;55.686;37.848;2023-02-28T02:11:25;6.38;;;4.68;;
47784;SDS011;35233;55.686;37.848;2023-02-28T02:36:18;7.53;;;4.53;;
47784;SDS011;35233;55.686;37.848;2023-02-28T02:46:48;5.75;;;4.35;;
47784;SDS011;35233;55.686;37.848;2023-02-28T02:49:17;6.03;;;4.10;;
47784;SDS011;35233;55.686;37.848;2023-02-28T02:51:53;6.22;;;4.53;;
47784;SDS011;35233;55.686;37.848;2023-02-28T02:54:21;6.25;;;4.50;;
47784;SDS011;35233;55.686;37.848;2023-02-28T02:56:53;5.78;;;4.35;;
47784;SDS011;35233;55.686;37.848;2023-02-28T02:59:22;6.43;;;4.90;;
47784;SDS011;35233;55.686;37.848;2023-02-28T03:01:50;7.35;;;4.40;;
47784;SDS011;35233;55.686;37.848;2023-02-28T03:04:20;7.30;;;4.32;;
47784;SDS011;35233;55.686;37.848;2023-02-28T03:06:48;6.07;;;4.40;;
47784;SDS011;35233;55.686;37.848;2023-02-28T03:09:20;6.40;;;4.53;;
47784;SDS011;35233;55.686;37.848;2023-02-28T03:11:48;5.35;;;4.07;;
47784;SDS011;35233;55.686;37.848;2023-02-28T03:17:05;5.35;;;4.15;;
47784;SDS011;35233;55.686;37.848;2023-02-28T03:31:03;5.85;;;4.20;;
47784;SDS011;35233;55.686;37.848;2023-02-28T03:33:56;5.65;;;4.13;;
47784;SDS011;35233;55.686;37.848;2023-02-28T03:36:29;6.20;;;4.53;;
47784;SDS011;35233;55.686;37.848;2023-02-28T03:39:09;6.00;;;4.00;;
47784;SDS011;35233;55.686;37.848;2023-02-28T03:44:24;5.20;;;4.00;;
47784;SDS011;35233;55.686;37.848;2023-02-28T03:47:01;6.20;;;4.03;;
47784;SDS011;35233;55.686;37.848;2023-02-28T03:49:35;5.85;;;4.05;;
47784;SDS011;35233;55.686;37.848;2023-02-28T03:52:09;5.18;;;3.85;;
47784;SDS011;35233;55.686;37.848;2023-02-28T03:54:36;4.97;;;3.78;;
47784;SDS011;35233;55.686;37.848;2023-02-28T03:59:56;4.78;;;3.65;;
47784;SDS011;35233;55.686;37.848;2023-02-28T04:02:23;5.13;;;3.97;;
47784;SDS011;35233;55.686;37.848;2023-02-28T04:04:49;5.82;;;3.88;;
47784;SDS011;35233;55.686;37.848;2023-02-28T04:07:16;4.60;;;3.85;;
47784;SDS011;35233;55.686;37.848;2023-02-28T04:09:42;5.80;;;3.90;;
47784;SDS011;35233;55.686;37.848;2023-02-28T04:12:08;4.72;;;3.83;;
47784;SDS011;35233;55.686;37.848;2023-02-28T04:14:34;4.95;;;3.70;;
47784;SDS011;35233;55.686;37.848;2023-02-28T04:16:59;4.97;;;3.60;;
47784;SDS011;35233;55.686;37.848;2023-02-28T04:19:25;4.78;;;3.40;;
47784;SDS011;35233;55.686;37.848;2023-02-28T04:21:51;5.68;;;3.80;;
47784;SDS011;35233;55.686;37.848;2023-02-28T04:24:19;6.30;;;3.95;;
47784;SDS011;35233;55.686;37.848;2023-02-28T04:26:47;4.63;;;3.40;;
47784;SDS011;35233;55.686;37.848;2023-02-28T04:29:20;5.10;;;3.72;;
47784;SDS011;35233;55.686;37.848;2023-02-28T04:31:46;5.82;;;3.70;;
47784;SDS011;35233;55.686;37.848;2023-02-28T04:34:12;6.00;;;3.72;;
47784;SDS011;35233;55.686;37.848;2023-02-28T04:36:37;8.15;;;4.05;;
47784;SDS011;35233;55.686;37.848;2023-02-28T04:39:03;5.95;;;3.70;;
47784;SDS011;35233;55.686;37.848;2023-02-28T04:41:29;4.95;;;3.75;;
47784;SDS011;35233;55.686;37.848;2023-02-28T04:43:54;8.00;;;4.07;;
47784;SDS011;35233;55.686;37.848;2023-02-28T04:46:21;7.07;;;3.53;;
47784;SDS011;35233;55.686;37.848;2023-02-28T04:48:47;5.40;;;3.10;;
47784;SDS011;35233;55.686;37.848;2023-02-28T04:51:14;5.57;;;3.70;;
47784;SDS011;35233;55.686;37.848;2023-02-28T04:53:40;5.80;;;3.67;;
47784;SDS011;35233;55.686;37.848;2023-02-28T04:56:07;5.85;;;4.07;;
47784;SDS011;35233;55.686;37.848;2023-02-28T04:58:35;7.68;;;3.67;;
47784;SDS011;35233;55.686;37.848;2023-02-28T05:01:05;5.55;;;3.40;;
47784;SDS011;35233;55.686;37.848;2023-02-28T05:03:38;6.35;;;4.22;;
47784;SDS011;35233;55.686;37.848;2023-02-28T05:06:05;5.28;;;3.65;;
47784;SDS011;35233;55.686;37.848;2023-02-28T05:08:32;7.05;;;3.30;;
47784;SDS011;35233;55.686;37.848;2023-02-28T05:10:57;7.97;;;3.50;;
47784;SDS011;35233;55.686;37.848;2023-02-28T05:13:25;5.95;;;3.65;;
47784;SDS011;35233;55.686;37.848;2023-02-28T05:15:51;5.65;;;3.67;;
47784;SDS011;35233;55.686;37.848;2023-02-28T05:18:16;8.95;;;4.07;;
47784;SDS011;35233;55.686;37.848;2023-02-28T05:20:42;5.63;;;3.50;;
47784;SDS011;35233;55.686;37.848;2023-02-28T05:23:08;6.20;;;3.47;;
47784;SDS011;35233;55.686;37.848;2023-02-28T05:25:36;5.45;;;3.83;;
47784;SDS011;35233;55.686;37.848;2023-02-28T05:28:02;4.75;;;3.25;;
47784;SDS011;35233;55.686;37.848;2023-02-28T05:30:27;7.72;;;3.38;;
47784;SDS011;35233;55.686;37.848;2023-02-28T05:32:56;4.57;;;3.33;;
47784;SDS011;35233;55.686;37.848;2023-02-28T05:35:23;4.68;;;2.92;;
47784;SDS011;35233;55.686;37.848;2023-02-28T05:37:49;4.60;;;3.33;;
47784;SDS011;35233;55.686;37.848;2023-02-28T05:40:14;5.15;;;3.42;;
47784;SDS011;35233;55.686;37.848;2023-02-28T05:42:40;4.78;;;3.20;;
47784;SDS011;35233;55.686;37.848;2023-02-28T05:45:06;6.40;;;3.85;;
47784;SDS011;35233;55.686;37.848;2023-02-28T05:47:33;4.53;;;3.35;;
47784;SDS011;35233;55.686;37.848;2023-02-28T05:49:59;4.47;;;3.40;;
47784;SDS011;35233;55.686;37.848;2023-02-28T05:52:25;5.80;;;3.25;;
47784;SDS011;35233;55.686;37.848;2023-02-28T05:54:50;5.95;;;3.40;;
47784;SDS011;35233;55.686;37.848;2023-02-28T05:57:16;4.78;;;3.25;;
47784;SDS011;35233;55.686;37.848;2023-02-28T05:59:42;5.22;;;3.70;;
47784;SDS011;35233;55.686;37.848;2023-02-28T06:02:14;4.70;;;3.20;;
47784;SDS011;35233;55.686;37.848;2023-02-28T06:04:41;5.03;;;3.35;;
47784;SDS011;35233;55.686;37.848;2023-02-28T06:07:07;5.72;;;3.47;;
47784;SDS011;35233;55.686;37.848;2023-02-28T06:09:34;5.20;;;3.30;;
47784;SDS011;35233;55.686;37.848;2023-02-28T06:11:59;6.43;;;3.58;;
47784;SDS011;35233;55.686;37.848;2023-02-28T06:14:28;4.82;;;3.53;;
47784;SDS011;35233;55.686;37.848;2023-02-28T06:16:56;4.70;;;3.50;;
47784;SDS011;35233;55.686;37.848;2023-02-28T06:19:22;6.03;;;3.33;;
47784;SDS011;35233;55.686;37.848;2023-02-28T06:21:50;5.22;;;3.67;;
47784;SDS011;35233;55.686;37.848;2023-02-28T06:24:18;6.03;;;3.70;;
47784;SDS011;35233;55.686;37.848;2023-02-28T06:26:44;5.50;;;3.53;;
47784;SDS011;35233;55.686;37.848;2023-02-28T06:29:10;5.20;;;3.15;;
47784;SDS011;35233;55.686;37.848;2023-02-28T06:31:36;6.28;;;3.78;;
47784;SDS011;35233;55.686;37.848;2023-02-28T06:34:03;4.63;;;3.10;;
47784;SDS011;35233;55.686;37.848;2023-02-28T06:36:29;5.03;;;3.10;;
47784;SDS011;35233;55.686;37.848;2023-02-28T06:38:57;4.70;;;3.28;;
47784;SDS011;35233;55.686;37.848;2023-02-28T06:41:23;5.97;;;3.78;;
47784;SDS011;35233;55.686;37.848;2023-02-28T06:43:51;5.90;;;3.58;;
47784;SDS011;35233;55.686;37.848;2023-02-28T06:46:18;5.28;;;3.22;;
47784;SDS011;35233;55.686;37.848;2023-02-28T06:48:44;4.55;;;3.47;;
47784;SDS011;35233;55.686;37.848;2023-02-28T06:51:15;4.85;;;3.30;;
47784;SDS011;35233;55.686;37.848;2023-02-28T06:53:43;4.65;;;3.28;;
47784;SDS011;35233;55.686;37.848;2023-02-28T06:56:10;4.30;;;3.28;;
47784;SDS011;35233;55.686;37.848;2023-02-28T06:58:37;5.53;;;3.40;;
47784;SDS011;35233;55.686;37.848;2023-02-28T07:01:04;5.53;;;3.63;;
47784;SDS011;35233;55.686;37.848;2023-02-28T07:03:31;4.70;;;3.25;;
47784;SDS011;35233;55.686;37.848;2023-02-28T07:05:57;4.50;;;3.13;;
47784;SDS011;35233;55.686;37.848;2023-02-28T07:08:23;4.78;;;3.20;;
47784;SDS011;35233;55.686;37.848;2023-02-28T07:10:53;4.82;;;3.30;;
47784;SDS011;35233;55.686;37.848;2023-02-28T07:13:20;4.18;;;3.08;;
47784;SDS011;35233;55.686;37.848;2023-02-28T07:15:56;4.57;;;3.22;;
47784;SDS011;35233;55.686;37.848;2023-02-28T07:18:27;4.53;;;3.03;;
47784;SDS011;35233;55.686;37.848;2023-02-28T07:20:53;5.15;;;3.40;;
47784;SDS011;35233;55.686;37.848;2023-02-28T07:23:19;4.93;;;3.20;;
47784;SDS011;35233;55.686;37.848;2023-02-28T07:25:45;4.93;;;3.40;;
47784;SDS011;35233;55.686;37.848;2023-02-28T07:28:11;4.88;;;3.38;;
47784;SDS011;35233;55.686;37.848;2023-02-28T07:30:37;5.82;;;3.38;;
47784;SDS011;35233;55.686;37.848;2023-02-28T07:33:02;5.20;;;3.30;;
47784;SDS011;35233;55.686;37.848;2023-02-28T07:35:29;4.78;;;3.30;;
47784;SDS011;35233;55.686;37.848;2023-02-28T07:37:57;4.07;;;2.92;;
47784;SDS011;35233;55.686;37.848;2023-02-28T07:40:24;3.90;;;3.20;;
47784;SDS011;35233;55.686;37.848;2023-02-28T07:42:50;4.43;;;3.15;;
47784;SDS011;35233;55.686;37.848;2023-02-28T07:45:15;6.10;;;3.30;;
47784;SDS011;35233;55.686;37.848;2023-02-28T07:47:42;4.90;;;3.17;;
47784;SDS011;35233;55.686;37.848;2023-02-28T07:50:09;4.40;;;3.33;;
47784;SDS011;35233;55.686;37.848;2023-02-28T07:52:36;4.43;;;3.28;;
47784;SDS011;35233;55.686;37.848;2023-02-28T07:55:03;5.00;;;3.38;;
47784;SDS011;35233;55.686;37.848;2023-02-28T07:57:29;4.30;;;3.30;;
47784;SDS011;35233;55.686;37.848;2023-02-28T07:59:55;4.70;;;3.40;;
47784;SDS011;35233;55.686;37.848;2023-02-28T08:02:20;5.85;;;3.42;;
47784;SDS011;35233;55.686;37.848;2023-02-28T08:04:46;4.50;;;3.10;;
47784;SDS011;35233;55.686;37.848;2023-02-28T08:07:14;5.15;;;3.40;;
47784;SDS011;35233;55.686;37.848;2023-02-28T08:09:41;5.05;;;3.47;;
47784;SDS011;35233;55.686;37.848;2023-02-28T08:12:07;4.32;;;3.00;;
47784;SDS011;35233;55.686;37.848;2023-02-28T08:14:33;4.15;;;2.90;;
47784;SDS011;35233;55.686;37.848;2023-02-28T08:16:59;5.40;;;3.20;;
47784;SDS011;35233;55.686;37.848;2023-02-28T08:19:25;4.50;;;3.20;;
47784;SDS011;35233;55.686;37.848;2023-02-28T08:21:51;6.20;;;3.13;;
47784;SDS011;35233;55.686;37.848;2023-02-28T08:24:16;4.82;;;3.20;;
47784;SDS011;35233;55.686;37.848;2023-02-28T08:26:42;5.45;;;3.35;;
47784;SDS011;35233;55.686;37.848;2023-02-28T08:29:07;5.45;;;3.28;;
47784;SDS011;35233;55.686;37.848;2023-02-28T08:31:33;5.43;;;3.35;;
47784;SDS011;35233;55.686;37.848;2023-02-28T08:34:00;4.00;;;3.00;;
47784;SDS011;35233;55.686;37.848;2023-02-28T08:36:30;4.55;;;3.20;;
47784;SDS011;35233;55.686;37.848;2023-02-28T08:38:56;4.85;;;3.00;;
47784;SDS011;35233;55.686;37.848;2023-02-28T08:41:22;4.82;;;2.97;;
47784;SDS011;35233;55.686;37.848;2023-02-28T08:43:48;4.90;;;3.25;;
47784;SDS011;35233;55.686;37.848;2023-02-28T08:46:14;4.07;;;2.97;;
47784;SDS011;35233;55.686;37.848;2023-02-28T08:48:39;3.58;;;2.80;;
47784;SDS011;35233;55.686;37.848;2023-02-28T08:51:09;4.40;;;2.83;;
47784;SDS011;35233;55.686;37.848;2023-02-28T08:53:36;4.30;;;3.00;;
47784;SDS011;35233;55.686;37.848;2023-02-28T08:56:07;4.82;;;3.00;;
47784;SDS011;35233;55.686;37.848;2023-02-28T08:58:36;4.20;;;3.17;;
47784;SDS011;35233;55.686;37.848;2023-02-28T09:01:19;4.97;;;3.45;;
47784;SDS011;35233;55.686;37.848;2023-02-28T09:03:47;5.25;;;3.38;;
47784;SDS011;35233;55.686;37.848;2023-02-28T09:06:15;5.13;;;3.20;;
47784;SDS011;35233;55.686;37.848;2023-02-28T09:08:41;4.45;;;3.10;;
47784;SDS011;35233;55.686;37.848;2023-02-28T09:11:07;6.03;;;3.03;;
47784;SDS011;35233;55.686;37.848;2023-02-28T09:13:33;5.50;;;3.10;;
47784;SDS011;35233;55.686;37.848;2023-02-28T09:15:59;5.82;;;3.33;;
47784;SDS011;35233;55.686;37.848;2023-02-28T09:18:27;4.90;;;3.40;;
47784;SDS011;35233;55.686;37.848;2023-02-28T09:20:54;4.30;;;2.85;;
47784;SDS011;35233;55.686;37.848;2023-02-28T09:23:20;5.28;;;3.10;;
47784;SDS011;35233;55.686;37.848;2023-02-28T09:25:46;4.45;;;3.20;;
47784;SDS011;35233;55.686;37.848;2023-02-28T09:28:12;4.38;;;3.10;;
47784;SDS011;35233;55.686;37.848;2023-02-28T09:30:40;4.20;;;3.13;;
47784;SDS011;35233;55.686;37.848;2023-02-28T09:33:06;4.40;;;3.25;;
47784;SDS011;35233;55.686;37.848;2023-02-28T09:35:32;4.47;;;3.28;;
47784;SDS011;35233;55.686;37.848;2023-02-28T09:37:58;4.65;;;3.20;;
47784;SDS011;35233;55.686;37.848;2023-02-28T09:40:24;4.68;;;3.08;;
47784;SDS011;35233;55.686;37.848;2023-02-28T09:42:52;3.72;;;3.05;;
47784;SDS011;35233;55.686;37.848;2023-02-28T09:45:33;4.53;;;3.25;;
47784;SDS011;35233;55.686;37.848;2023-02-28T09:48:12;5.25;;;3.50;;
47784;SDS011;35233;55.686;37.848;2023-02-28T09:50:47;4.57;;;3.30;;
47784;SDS011;35233;55.686;37.848;2023-02-28T09:53:21;4.30;;;2.92;;
47784;SDS011;35233;55.686;37.848;2023-02-28T09:55:53;6.00;;;3.40;;
47784;SDS011;35233;55.686;37.848;2023-02-28T09:58:26;4.95;;;3.30;;
47784;SDS011;35233;55.686;37.848;2023-02-28T10:01:20;4.72;;;3.00;;
47784;SDS011;35233;55.686;37.848;2023-02-28T10:06:50;5.28;;;3.00;;
47784;SDS011;35233;55.686;37.848;2023-02-28T10:09:19;4.88;;;3.60;;
47784;SDS011;35233;55.686;37.848;2023-02-28T10:11:53;5.00;;;3.20;;
47784;SDS011;35233;55.686;37.848;2023-02-28T10:14:22;4.22;;;2.88;;
47784;SDS011;35233;55.686;37.848;2023-02-28T10:25:26;3.72;;;2.80;;
47784;SDS011;35233;55.686;37.848;2023-02-28T10:28:10;5.68;;;3.22;;
47784;SDS011;35233;55.686;37.848;2023-02-28T10:30:39;4.57;;;2.88;;
47784;SDS011;35233;55.686;37.848;2023-02-28T10:33:15;5.55;;;3.13;;
47784;SDS011;35233;55.686;37.848;2023-02-28T10:35:54;4.25;;;2.92;;
47784;SDS011;35233;55.686;37.848;2023-02-28T10:38:24;4.07;;;2.83;;
47784;SDS011;35233;55.686;37.848;2023-02-28T10:40:57;3.83;;;2.72;;
47784;SDS011;35233;55.686;37.848;2023-02-28T10:43:29;4.68;;;3.17;;
47784;SDS011;35233;55.686;37.848;2023-02-28T10:45:56;4.47;;;2.75;;
47784;SDS011;35233;55.686;37.848;2023-02-28T10:48:38;4.30;;;2.92;;
47784;SDS011;35233;55.686;37.848;2023-02-28T10:51:12;4.68;;;2.95;;
47784;SDS011;35233;55.686;37.848;2023-02-28T11:01:23;4.35;;;2.92;;
47784;SDS011;35233;55.686;37.848;2023-02-28T11:03:54;4.30;;;2.95;;
47784;SDS011;35233;55.686;37.848;2023-02-28T11:06:23;4.50;;;3.00;;
47784;SDS011;35233;55.686;37.848;2023-02-28T11:08:58;4.70;;;3.08;;
47784;SDS011;35233;55.686;37.848;2023-02-28T11:11:45;5.38;;;3.22;;
47784;SDS011;35233;55.686;37.848;2023-02-28T11:14:20;4.45;;;3.25;;
47784;SDS011;35233;55.686;37.848;2023-02-28T11:16:48;4.32;;;3.10;;
47784;SDS011;35233;55.686;37.848;2023-02-28T11:19:23;4.30;;;3.05;;
47784;SDS011;35233;55.686;37.848;2023-02-28T11:21:57;4.90;;;3.15;;
47784;SDS011;35233;55.686;37.848;2023-02-28T11:24:29;5.30;;;3.20;;
47784;SDS011;35233;55.686;37.848;2023-02-28T11:27:02;4.30;;;3.03;;
47784;SDS011;35233;55.686;37.848;2023-02-28T11:29:32;5.38;;;3.30;;
47784;SDS011;35233;55.686;37.848;2023-02-28T11:34:32;5.78;;;3.60;;
47784;SDS011;35233;55.686;37.848;2023-02-28T11:36:58;4.55;;;3.03;;
47784;SDS011;35233;55.686;37.848;2023-02-28T11:39:26;4.32;;;3.28;;
47784;SDS011;35233;55.686;37.848;2023-02-28T12:03:16;5.45;;;3.65;;
47784;SDS011;35233;55.686;37.848;2023-02-28T12:11:26;5.05;;;3.50;;
47784;SDS011;35233;55.686;37.848;2023-02-28T12:14:02;6.00;;;3.72;;
47784;SDS011;35233;55.686;37.848;2023-02-28T12:16:40;6.25;;;3.97;;
47784;SDS011;35233;55.686;37.848;2023-02-28T12:19:19;5.95;;;4.10;;
47784;SDS011;35233;55.686;37.848;2023-02-28T12:24:45;6.57;;;3.88;;
47784;SDS011;35233;55.686;37.848;2023-02-28T12:27:47;5.60;;;3.90;;
47784;SDS011;35233;55.686;37.848;2023-02-28T12:30:32;6.03;;;4.07;;
47784;SDS011;35233;55.686;37.848;2023-02-28T12:33:03;5.88;;;3.90;;
47784;SDS011;35233;55.686;37.848;2023-02-28T12:35:37;5.90;;;4.03;;
47784;SDS011;35233;55.686;37.848;2023-02-28T12:38:10;4.85;;;3.80;;
47784;SDS011;35233;55.686;37.848;2023-02-28T12:43:09;5.05;;;3.63;;
47784;SDS011;35233;55.686;37.848;2023-02-28T12:45:57;5.28;;;3.78;;
47784;SDS011;35233;55.686;37.848;2023-02-28T12:48:49;5.45;;;3.70;;
47784;SDS011;35233;55.686;37.848;2023-02-28T12:51:16;4.72;;;3.35;;
47784;SDS011;35233;55.686;37.848;2023-02-28T12:59:07;5.68;;;3.78;;
47784;SDS011;35233;55.686;37.848;2023-02-28T13:10:20;4.82;;;3.25;;
47784;SDS011;35233;55.686;37.848;2023-02-28T13:12:52;5.18;;;3.50;;
47784;SDS011;35233;55.686;37.848;2023-02-28T13:15:26;6.18;;;3.40;;
47784;SDS011;35233;55.686;37.848;2023-02-28T13:17:57;4.63;;;3.20;;
47784;SDS011;35233;55.686;37.848;2023-02-28T13:20:25;4.82;;;3.20;;
47784;SDS011;35233;55.686;37.848;2023-02-28T13:22:59;5.38;;;3.20;;
47784;SDS011;35233;55.686;37.848;2023-02-28T13:28:13;5.13;;;3.20;;
47784;SDS011;35233;55.686;37.848;2023-02-28T13:31:13;4.50;;;3.33;;
47784;SDS011;35233;55.686;37.848;2023-02-28T13:36:23;4.55;;;3.17;;
47784;SDS011;35233;55.686;37.848;2023-02-28T13:39:00;4.80;;;3.47;;
47784;SDS011;35233;55.686;37.848;2023-02-28T13:46:28;4.85;;;3.30;;
47784;SDS011;35233;55.686;37.848;2023-02-28T13:48:54;4.15;;;3.03;;
47784;SDS011;35233;55.686;37.848;2023-02-28T13:51:38;4.90;;;3.33;;
47784;SDS011;35233;55.686;37.848;2023-02-28T13:54:13;4.53;;;3.15;;
47784;SDS011;35233;55.686;37.848;2023-02-28T14:05:12;5.03;;;3.20;;
47784;SDS011;35233;55.686;37.848;2023-02-28T14:07:50;4.70;;;2.97;;
47784;SDS011;35233;55.686;37.848;2023-02-28T14:10:29;4.40;;;3.10;;
47784;SDS011;35233;55.686;37.848;2023-02-28T14:15:49;3.95;;;2.85;;
47784;SDS011;35233;55.686;37.848;2023-02-28T14:21:01;4.03;;;2.92;;
47784;SDS011;35233;55.686;37.848;2023-02-28T14:32:21;4.00;;;2.97;;
47784;SDS011;35233;55.686;37.848;2023-02-28T14:37:50;4.30;;;2.92;;
47784;SDS011;35233;55.686;37.848;2023-02-28T14:40:49;4.47;;;3.03;;
47784;SDS011;35233;55.686;37.848;2023-02-28T14:43:20;4.50;;;3.13;;
47784;SDS011;35233;55.686;37.848;2023-02-28T14:45:49;3.78;;;2.90;;
47784;SDS011;35233;55.686;37.848;2023-02-28T14:48:18;3.78;;;2.72;;
47784;SDS011;35233;55.686;37.848;2023-02-28T14:50:49;3.55;;;2.78;;
47784;SDS011;35233;55.686;37.848;2023-02-28T14:53:18;4.38;;;3.00;;
47784;SDS011;35233;55.686;37.848;2023-02-28T14:55:46;3.70;;;2.70;;
47784;SDS011;35233;55.686;37.848;2023-02-28T14:58:20;4.28;;;2.90;;
47784;SDS011;35233;55.686;37.848;2023-02-28T15:00:52;3.85;;;2.72;;
47784;SDS011;35233;55.686;37.848;2023-02-28T15:03:31;3.97;;;2.80;;
47784;SDS011;35233;55.686;37.848;2023-02-28T15:06:16;3.70;;;2.70;;
47784;SDS011;35233;55.686;37.848;2023-02-28T15:08:43;4.80;;;2.88;;
47784;SDS011;35233;55.686;37.848;2023-02-28T15:13:48;4.40;;;3.05;;
47784;SDS011;35233;55.686;37.848;2023-02-28T15:16:20;4.15;;;2.92;;
47784;SDS011;35233;55.686;37.848;2023-02-28T15:21:51;4.10;;;2.97;;
47784;SDS011;35233;55.686;37.848;2023-02-28T15:26:57;3.75;;;2.83;;
47784;SDS011;35233;55.686;37.848;2023-02-28T15:29:25;4.40;;;3.10;;
47784;SDS011;35233;55.686;37.848;2023-02-28T15:34:37;4.78;;;3.22;;
47784;SDS011;35233;55.686;37.848;2023-02-28T15:40:12;4.28;;;3.00;;
47784;SDS011;35233;55.686;37.848;2023-02-28T15:42:38;4.10;;;3.10;;
47784;SDS011;35233;55.686;37.848;2023-02-28T15:45:03;4.75;;;3.38;;
47784;SDS011;35233;55.686;37.848;2023-02-28T15:47:29;5.07;;;3.30;;
47784;SDS011;35233;55.686;37.848;2023-02-28T15:52:22;4.05;;;3.10;;
47784;SDS011;35233;55.686;37.848;2023-02-28T15:54:52;4.55;;;3.50;;
47784;SDS011;35233;55.686;37.848;2023-02-28T15:57:25;5.95;;;3.50;;
47784;SDS011;35233;55.686;37.848;2023-02-28T15:59:56;4.88;;;3.28;;
47784;SDS011;35233;55.686;37.848;2023-02-28T16:02:32;6.05;;;3.67;;
47784;SDS011;35233;55.686;37.848;2023-02-28T16:07:31;5.47;;;3.75;;
47784;SDS011;35233;55.686;37.848;2023-02-28T16:09:58;5.80;;;3.70;;
47784;SDS011;35233;55.686;37.848;2023-02-28T16:12:28;6.00;;;4.20;;
47784;SDS011;35233;55.686;37.848;2023-02-28T16:14:56;7.57;;;4.43;;
47784;SDS011;35233;55.686;37.848;2023-02-28T16:17:27;6.13;;;4.38;;
47784;SDS011;35233;55.686;37.848;2023-02-28T16:19:58;6.65;;;4.35;;
47784;SDS011;35233;55.686;37.848;2023-02-28T16:22:24;8.35;;;5.00;;
47784;SDS011;35233;55.686;37.848;2023-02-28T16:24:50;8.27;;;4.78;;
47784;SDS011;35233;55.686;37.848;2023-02-28T16:27:19;9.88;;;5.32;;
47784;SDS011;35233;55.686;37.848;2023-02-28T16:29:49;6.97;;;4.47;;
47784;SDS011;35233;55.686;37.848;2023-02-28T16:32:15;7.68;;;5.10;;
47784;SDS011;35233;55.686;37.848;2023-02-28T16:34:41;7.53;;;5.00;;
47784;SDS011;35233;55.686;37.848;2023-02-28T16:37:12;9.60;;;5.05;;
47784;SDS011;35233;55.686;37.848;2023-02-28T16:39:39;7.85;;;5.13;;
47784;SDS011;35233;55.686;37.848;2023-02-28T16:42:05;8.35;;;5.43;;
47784;SDS011;35233;55.686;37.848;2023-02-28T16:44:33;9.23;;;5.30;;
47784;SDS011;35233;55.686;37.848;2023-02-28T16:47:00;9.15;;;5.60;;
47784;SDS011;35233;55.686;37.848;2023-02-28T16:49:27;8.88;;;5.72;;
47784;SDS011;35233;55.686;37.848;2023-02-28T16:51:53;8.30;;;5.80;;
47784;SDS011;35233;55.686;37.848;2023-02-28T16:54:18;9.30;;;6.03;;
47784;SDS011;35233;55.686;37.848;2023-02-28T16:56:44;10.45;;;5.72;;
47784;SDS011;35233;55.686;37.848;2023-02-28T16:59:12;9.82;;;5.53;;
47784;SDS011;35233;55.686;37.848;2023-02-28T17:01:38;11.18;;;6.18;;
47784;SDS011;35233;55.686;37.848;2023-02-28T17:04:04;9.90;;;6.07;;
47784;SDS011;35233;55.686;37.848;2023-02-28T17:06:30;8.80;;;5.35;;
47784;SDS011;35233;55.686;37.848;2023-02-28T17:08:56;9.60;;;5.95;;
47784;SDS011;35233;55.686;37.848;2023-02-28T17:11:23;10.07;;;5.78;;
47784;SDS011;35233;55.686;37.848;2023-02-28T17:13:49;9.20;;;5.95;;
47784;SDS011;35233;55.686;37.848;2023-02-28T17:18:50;11.73;;;6.43;;
47784;SDS011;35233;55.686;37.848;2023-02-28T17:21:16;10.23;;;6.43;;
47784;SDS011;35233;55.686;37.848;2023-02-28T17:23:42;9.18;;;6.28;;
47784;SDS011;35233;55.686;37.848;2023-02-28T17:26:12;8.77;;;6.03;;
47784;SDS011;35233;55.686;37.848;2023-02-28T17:28:38;8.80;;;6.25;;
47784;SDS011;35233;55.686;37.848;2023-02-28T17:31:04;9.68;;;6.00;;
47784;SDS011;35233;55.686;37.848;2023-02-28T17:33:29;9.35;;;6.53;;
47784;SDS011;35233;55.686;37.848;2023-02-28T17:35:55;10.70;;;6.88;;
47784;SDS011;35233;55.686;37.848;2023-02-28T17:38:21;11.02;;;6.40;;
47784;SDS011;35233;55.686;37.848;2023-02-28T17:40:48;12.82;;;6.15;;
47784;SDS011;35233;55.686;37.848;2023-02-28T17:43:13;10.85;;;6.75;;